Time;durP1;ratioP1;P1;durP2;ratioP2;P2;SDS_P1;SDS_P2;PMS_P1;PMS_P2;Temp;Humidity;BMP_temperature;BMP_pressure;BME280_temperature;BME280_humidity;BME280_pressure;Samples;Min_cycle;Max_cycle;Signal;HPM_P1;HPM_P2
2024/04/17 00:02:33;;;;;;;;;;;19.70;47.90;;;;;;8963901;26;19941;-59
2024/04/17 00:06:34;;;;;;;;;;;19.70;47.90;;;;;;8965301;26;19998;-59
2024/04/17 00:10:34;;;;;;;;;;;19.70;47.90;;;;;;8965409;26;19929;-60
2024/04/17 00:14:35;;;;;;;;;;;19.70;47.90;;;;;;8918006;26;19980;-60
2024/04/17 00:18:35;;;;;;;;;;;19.70;47.90;;;;;;8906216;26;19936;-60
2024/04/17 00:22:36;;;;;;;;;;;19.70;47.90;;;;;;8875532;26;20046;-60
2024/04/17 00:26:37;;;;;;;;;;;19.70;47.90;;;;;;8906216;26;20044;-60
2024/04/17 00:30:37;;;;;;;;;;;19.60;47.90;;;;;;8917903;26;19979;-60
2024/04/17 00:34:38;;;;;;;;;;;19.60;47.90;;;;;;8965274;26;20258;-60
2024/04/17 00:38:38;;;;;;;;;;;19.60;47.90;;;;;;8965183;26;19936;-60
2024/04/17 00:42:39;;;;;;;;;;;19.60;48.00;;;;;;8947038;26;20369;-60
2024/04/17 00:46:39;;;;;;;;;;;19.60;47.90;;;;;;8905970;26;19937;-60
2024/04/17 00:50:47;;;;;;;;;;;19.60;47.90;;;;;;8957798;26;19929;-60
2024/04/17 00:54:48;;;;;;;;;;;19.60;47.90;;;;;;8964204;26;20469;-60
2024/04/17 00:58:49;;;;;;;;;;;19.60;47.90;;;;;;8964157;26;20368;-58
2024/04/17 01:02:49;;;;;;;;;;;19.60;47.90;;;;;;8964224;26;20645;-60
2024/04/17 01:06:50;;;;;;;;;;;19.60;47.90;;;;;;8963860;26;19928;-60
2024/04/17 01:11:01;;;;;;;;;;;19.60;47.90;;;;;;8963883;26;20266;-60
2024/04/17 01:15:01;;;;;;;;;;;19.60;47.90;;;;;;8909449;26;19929;-59
2024/04/17 01:19:04;;;;;;;;;;;19.50;47.80;;;;;;8904687;26;19930;-59
2024/04/17 01:23:04;;;;;;;;;;;19.60;47.90;;;;;;8904655;26;19975;-59
2024/04/17 01:27:05;;;;;;;;;;;19.50;47.90;;;;;;8904757;26;19929;-59
2024/04/17 01:31:07;;;;;;;;;;;19.50;47.90;;;;;;8922958;26;19936;-59
2024/04/17 01:35:07;;;;;;;;;;;19.50;47.90;;;;;;8963322;26;20374;-58
2024/04/17 01:39:08;;;;;;;;;;;19.50;47.90;;;;;;8902549;26;20259;-59
2024/04/17 01:43:08;;;;;;;;;;;19.50;47.90;;;;;;8936803;26;19933;-58
2024/04/17 01:47:09;;;;;;;;;;;19.50;47.90;;;;;;8905125;26;19930;-59
2024/04/17 01:51:09;;;;;;;;;;;19.50;47.90;;;;;;8962822;26;20282;-58
2024/04/17 01:55:10;;;;;;;;;;;19.50;47.90;;;;;;8962204;26;20378;-59
2024/04/17 01:59:11;;;;;;;;;;;19.50;47.90;;;;;;8962964;26;19957;-57
2024/04/17 02:03:11;;;;;;;;;;;19.50;47.90;;;;;;8963074;26;19929;-59
2024/04/17 02:07:12;;;;;;;;;;;19.50;47.90;;;;;;8962026;26;19929;-59
2024/04/17 02:11:12;;;;;;;;;;;19.50;47.90;;;;;;8962739;26;20012;-58
2024/04/17 02:15:13;;;;;;;;;;;19.50;47.90;;;;;;8905771;26;19934;-58
2024/04/17 02:19:13;;;;;;;;;;;19.50;47.90;;;;;;8903649;26;19937;-58
2024/04/17 02:23:14;;;;;;;;;;;19.50;47.90;;;;;;8872664;26;19930;-57
2024/04/17 02:27:14;;;;;;;;;;;19.50;47.90;;;;;;8902897;26;19929;-57
2024/04/17 02:31:15;;;;;;;;;;;19.50;48.40;;;;;;8893828;26;19929;-57
2024/04/17 02:35:15;;;;;;;;;;;19.50;47.90;;;;;;8961418;26;19937;-57
2024/04/17 02:39:16;;;;;;;;;;;19.50;47.90;;;;;;8961756;26;19999;-56
2024/04/17 02:43:16;;;;;;;;;;;19.50;47.90;;;;;;8934105;26;20059;-56
2024/04/17 02:47:17;;;;;;;;;;;19.50;47.90;;;;;;8905424;26;19929;-56
2024/04/17 02:51:17;;;;;;;;;;;19.40;47.80;;;;;;8961378;26;19929;-56
2024/04/17 02:55:18;;;;;;;;;;;19.50;47.90;;;;;;8961381;26;20377;-56
2024/04/17 02:59:19;;;;;;;;;;;19.50;47.90;;;;;;8961750;26;20384;-56
2024/04/17 03:03:19;;;;;;;;;;;19.50;47.90;;;;;;8961256;26;19934;-57
2024/04/17 03:07:20;;;;;;;;;;;19.40;47.80;;;;;;8960820;26;19937;-57
2024/04/17 03:11:20;;;;;;;;;;;19.50;47.90;;;;;;8961170;26;20328;-57
2024/04/17 03:15:21;;;;;;;;;;;19.40;47.80;;;;;;8902430;26;19937;-56
2024/04/17 03:19:21;;;;;;;;;;;19.40;47.90;;;;;;8902063;26;19937;-58
2024/04/17 03:23:22;;;;;;;;;;;19.40;47.90;;;;;;8901769;26;19940;-56
2024/04/17 03:27:22;;;;;;;;;;;19.40;47.90;;;;;;8871237;26;19929;-57
2024/04/17 03:31:23;;;;;;;;;;;19.40;47.90;;;;;;8924574;26;19965;-57
2024/04/17 03:35:24;;;;;;;;;;;19.40;47.90;;;;;;8960181;26;19936;-59
2024/04/17 03:39:24;;;;;;;;;;;19.40;47.80;;;;;;8961074;26;19928;-59
2024/04/17 03:43:25;;;;;;;;;;;19.40;47.80;;;;;;8930117;26;19941;-59
2024/04/17 03:47:25;;;;;;;;;;;19.40;48.00;;;;;;8906021;26;20306;-59
2024/04/17 03:51:26;;;;;;;;;;;19.40;47.80;;;;;;8960038;26;19936;-59
2024/04/17 03:55:26;;;;;;;;;;;19.40;47.80;;;;;;8957462;26;19941;-59
2024/04/17 03:59:27;;;;;;;;;;;19.40;47.80;;;;;;8928423;26;19936;-60
2024/04/17 04:03:28;;;;;;;;;;;19.40;47.80;;;;;;8960109;26;19948;-60
2024/04/17 04:07:28;;;;;;;;;;;19.50;47.80;;;;;;8958976;26;19929;-59
2024/04/17 04:11:29;;;;;;;;;;;19.40;47.80;;;;;;8957635;26;19998;-59
2024/04/17 04:15:29;;;;;;;;;;;19.40;47.80;;;;;;8900377;26;19929;-60
2024/04/17 04:19:30;;;;;;;;;;;19.50;47.80;;;;;;8900226;26;19937;-59
2024/04/17 04:23:30;;;;;;;;;;;19.50;47.70;;;;;;8900223;26;19984;-59
2024/04/17 04:27:31;;;;;;;;;;;19.50;47.60;;;;;;8900229;26;19929;-60
2024/04/17 04:31:32;;;;;;;;;;;19.50;47.60;;;;;;8913598;26;19929;-59
2024/04/17 04:35:32;;;;;;;;;;;19.50;47.50;;;;;;9014905;26;19928;-59
2024/04/17 04:39:33;;;;;;;;;;;19.60;47.50;;;;;;8957283;26;19936;-60
2024/04/17 04:43:34;;;;;;;;;;;19.60;47.50;;;;;;9017896;26;19935;-57
2024/04/17 04:47:34;;;;;;;;;;;19.60;47.40;;;;;;9018733;26;20007;-57
2024/04/17 04:51:35;;;;;;;;;;;19.60;47.40;;;;;;9082186;26;19935;-58
2024/04/17 04:55:35;;;;;;;;;;;19.60;47.40;;;;;;9083899;26;19928;-58
2024/04/17 04:59:36;;;;;;;;;;;19.60;47.40;;;;;;9084246;26;19935;-57
2024/04/17 05:03:37;;;;;;;;;;;19.60;47.40;;;;;;9084098;26;19928;-59
2024/04/17 05:07:38;;;;;;;;;;;19.60;47.40;;;;;;9083734;26;19935;-58
2024/04/17 05:11:38;;;;;;;;;;;19.60;47.40;;;;;;9047258;26;19935;-58
2024/04/17 05:15:39;;;;;;;;;;;19.60;47.50;;;;;;9023615;26;19962;-57
2024/04/17 05:19:39;;;;;;;;;;;19.60;47.40;;;;;;9023134;26;19932;-58
2024/04/17 05:23:40;;;;;;;;;;;19.60;47.40;;;;;;9023821;26;19940;-58
2024/04/17 05:27:40;;;;;;;;;;;19.60;47.40;;;;;;9023189;26;20323;-57
2024/04/17 05:31:41;;;;;;;;;;;19.60;47.40;;;;;;9023067;26;20362;-57
2024/04/17 05:35:42;;;;;;;;;;;19.60;47.40;;;;;;9023290;26;19957;-58
2024/04/17 05:39:42;;;;;;;;;;;19.60;47.30;;;;;;9023690;26;19928;-57
2024/04/17 05:43:43;;;;;;;;;;;19.60;47.30;;;;;;9023058;26;20041;-58
2024/04/17 05:47:43;;;;;;;;;;;19.60;47.30;;;;;;9022315;26;20262;-58
2024/04/17 05:51:44;;;;;;;;;;;19.60;47.30;;;;;;9083170;26;20315;-58
2024/04/17 05:55:44;;;;;;;;;;;19.60;47.30;;;;;;9068746;26;19928;-57
2024/04/17 05:59:45;;;;;;;;;;;19.60;47.30;;;;;;9021814;26;20359;-56
2024/04/17 06:03:46;;;;;;;;;;;19.60;47.30;;;;;;9022596;26;19978;-58
2024/04/17 06:07:46;;;;;;;;;;;19.60;47.30;;;;;;9022115;26;20021;-58
2024/04/17 06:11:47;;;;;;;;;;;19.60;47.20;;;;;;9022540;26;19935;-58
2024/04/17 06:15:48;;;;;;;;;;;19.60;47.20;;;;;;9022630;26;19939;-58
2024/04/17 06:19:49;;;;;;;;;;;19.60;47.20;;;;;;9022565;26;19935;-57
2024/04/17 06:23:50;;;;;;;;;;;19.60;47.20;;;;;;9022144;26;19929;-57
2024/04/17 06:27:51;;;;;;;;;;;19.60;47.20;;;;;;9021899;26;19936;-58
2024/04/17 06:31:51;;;;;;;;;;;19.60;47.30;;;;;;9021595;26;20022;-58
2024/04/17 06:35:52;;;;;;;;;;;19.60;47.30;;;;;;9022210;26;19932;-58
2024/04/17 06:39:53;;;;;;;;;;;19.60;47.20;;;;;;9022475;26;20250;-56
2024/04/17 06:43:53;;;;;;;;;;;19.60;47.20;;;;;;9021117;26;19928;-57
2024/04/17 06:47:54;;;;;;;;;;;19.60;47.20;;;;;;9023699;26;20350;-57
2024/04/17 06:51:54;;;;;;;;;;;19.70;47.20;;;;;;9081481;26;19928;-58
2024/04/17 06:55:55;;;;;;;;;;;19.70;47.20;;;;;;9032579;26;20373;-58
2024/04/17 06:59:56;;;;;;;;;;;19.70;47.20;;;;;;9020588;26;19997;-58
2024/04/17 07:03:56;;;;;;;;;;;19.60;47.20;;;;;;9021457;26;19930;-56
2024/04/17 07:07:57;;;;;;;;;;;19.60;47.20;;;;;;9020865;26;19997;-56
2024/04/17 07:11:57;;;;;;;;;;;19.60;47.20;;;;;;8958486;26;19935;-56
2024/04/17 07:15:58;;;;;;;;;;;19.60;47.30;;;;;;9020270;26;19937;-56
2024/04/17 07:19:58;;;;;;;;;;;19.60;47.30;;;;;;9020806;26;19929;-56
2024/04/17 07:23:59;;;;;;;;;;;19.60;47.20;;;;;;9020250;26;19941;-56
2024/04/17 07:27:59;;;;;;;;;;;19.60;47.30;;;;;;9020468;26;20402;-56
2024/04/17 07:32:00;;;;;;;;;;;19.60;47.20;;;;;;9020270;26;19929;-56
2024/04/17 07:36:02;;;;;;;;;;;19.60;47.20;;;;;;9020331;26;19935;-56
2024/04/17 07:40:03;;;;;;;;;;;19.60;47.20;;;;;;9020897;26;19935;-56
2024/04/17 07:44:03;;;;;;;;;;;19.60;47.20;;;;;;9019510;26;19946;-57
2024/04/17 07:48:04;;;;;;;;;;;19.60;47.20;;;;;;9024391;26;19977;-55
2024/04/17 07:52:05;;;;;;;;;;;19.60;47.20;;;;;;9079660;26;19934;-57
2024/04/17 07:56:05;;;;;;;;;;;19.60;47.20;;;;;;9059863;26;20379;-55
2024/04/17 08:00:07;;;;;;;;;;;19.60;47.10;;;;;;8987761;26;19997;-56
2024/04/17 08:04:07;;;;;;;;;;;19.60;47.10;;;;;;9019249;26;19940;-56
2024/04/17 08:08:08;;;;;;;;;;;19.60;47.10;;;;;;8987123;26;19928;-57
2024/04/17 08:12:08;;;;;;;;;;;19.60;47.10;;;;;;9020462;26;20367;-56
2024/04/17 08:16:09;;;;;;;;;;;19.60;47.20;;;;;;9018804;26;19929;-59
2024/04/17 08:20:09;;;;;;;;;;;19.60;47.20;;;;;;9018452;26;19978;-59
2024/04/17 08:24:10;;;;;;;;;;;19.60;47.20;;;;;;8992404;26;20601;-59
2024/04/17 08:28:11;;;;;;;;;;;19.60;47.20;;;;;;9024393;26;19956;-58
2024/04/17 08:32:11;;;;;;;;;;;19.60;47.20;;;;;;9024072;26;19928;-58
2024/04/17 08:36:12;;;;;;;;;;;19.60;47.20;;;;;;9024618;26;19928;-58
2024/04/17 08:40:13;;;;;;;;;;;19.60;47.20;;;;;;9023522;26;19994;-58
2024/04/17 08:44:20;;;;;;;;;;;19.60;47.20;;;;;;9024130;26;20040;-59
2024/04/17 08:48:21;;;;;;;;;;;19.60;47.20;;;;;;9033084;26;19996;-59
2024/04/17 08:52:22;;;;;;;;;;;19.60;47.20;;;;;;9084470;26;19996;-59
2024/04/17 08:56:23;;;;;;;;;;;19.60;47.20;;;;;;9060074;26;19940;-58
2024/04/17 09:00:26;;;;;;;;;;;19.60;47.20;;;;;;8991830;26;19997;-59
2024/04/17 09:04:27;;;;;;;;;;;19.60;47.10;;;;;;9023453;26;19929;-59
2024/04/17 09:08:28;;;;;;;;;;;19.60;47.10;;;;;;9023334;26;19933;-59
2024/04/17 09:12:31;;;;;;;;;;;19.60;47.10;;;;;;9023459;26;20410;-59
2024/04/17 09:16:31;;;;;;;;;;;19.60;47.10;;;;;;9023249;26;19997;-58
2024/04/17 09:20:33;;;;;;;;;;;19.60;47.10;;;;;;9023336;26;20354;-59
2024/04/17 09:24:40;;;;;;;;;;;19.60;47.10;;;;;;9023071;26;19934;-57
2024/04/17 09:28:40;;;;;;;;;;;19.60;47.10;;;;;;9023103;26;20002;-56
2024/04/17 09:32:44;;;;;;;;;;;19.60;47.10;;;;;;9021209;26;20363;-55
2024/04/17 09:36:45;;;;;;;;;;;19.60;47.10;;;;;;9022515;26;19936;-57
2024/04/17 09:40:46;;;;;;;;;;;19.60;47.10;;;;;;9022513;26;19997;-56
2024/04/17 09:44:47;;;;;;;;;;;19.60;47.10;;;;;;9022914;26;19936;-56
2024/04/17 09:48:49;;;;;;;;;;;19.60;47.20;;;;;;9038447;26;19935;-55
2024/04/17 09:52:53;;;;;;;;;;;19.60;47.20;;;;;;9082875;26;19935;-57
2024/04/17 09:56:54;;;;;;;;;;;19.60;47.20;;;;;;9050581;26;19928;-56
2024/04/17 10:00:55;;;;;;;;;;;19.60;47.10;;;;;;9022481;26;19936;-57
2024/04/17 10:04:56;;;;;;;;;;;19.60;47.10;;;;;;8990615;26;20255;-56
2024/04/17 10:08:58;;;;;;;;;;;19.60;47.10;;;;;;9021974;26;19940;-55
2024/04/17 10:12:59;;;;;;;;;;;19.60;47.10;;;;;;9022878;26;19929;-56
2024/04/17 10:17:00;;;;;;;;;;;19.60;47.10;;;;;;9021779;26;20423;-56
2024/04/17 10:21:01;;;;;;;;;;;19.60;47.10;;;;;;9021715;26;20331;-56
2024/04/17 10:25:05;;;;;;;;;;;19.60;47.10;;;;;;9022070;26;19935;-56
2024/04/17 10:29:13;;;;;;;;;;;19.60;47.10;;;;;;9021563;26;19944;-57
2024/04/17 10:33:20;;;;;;;;;;;19.60;47.00;;;;;;9006339;26;19935;-58
2024/04/17 10:37:22;;;;;;;;;;;19.60;47.10;;;;;;9021179;26;19928;-57
2024/04/17 10:41:27;;;;;;;;;;;19.60;47.10;;;;;;9021629;26;19936;-57
2024/04/17 10:45:28;;;;;;;;;;;19.60;47.10;;;;;;8987981;26;19935;-59
2024/04/17 10:49:29;;;;;;;;;;;19.60;47.00;;;;;;9057311;26;19993;-59
2024/04/17 10:53:31;;;;;;;;;;;19.60;47.00;;;;;;9080314;26;20375;-59
2024/04/17 10:57:32;;;;;;;;;;;19.60;47.00;;;;;;9040502;26;19936;-59
2024/04/17 11:01:33;;;;;;;;;;;19.60;47.60;;;;;;9021309;26;19940;-58
2024/04/17 11:05:34;;;;;;;;;;;19.60;47.10;;;;;;9020327;26;19929;-58
2024/04/17 11:09:34;;;;;;;;;;;19.60;47.10;;;;;;9021292;26;19940;-59
2024/04/17 11:13:39;;;;;;;;;;;19.60;47.10;;;;;;8989497;26;19978;-59
2024/04/17 11:17:40;;;;;;;;;;;19.60;47.10;;;;;;9020142;26;19929;-59
2024/04/17 11:21:43;;;;;;;;;;;19.60;47.10;;;;;;8988704;26;19929;-59
2024/04/17 11:25:44;;;;;;;;;;;19.60;47.10;;;;;;9020236;26;19929;-59
2024/04/17 11:29:45;;;;;;;;;;;19.60;47.00;;;;;;9020284;26;19929;-58
2024/04/17 11:33:45;;;;;;;;;;;19.60;47.00;;;;;;9019849;26;20435;-59
2024/04/17 11:37:46;;;;;;;;;;;19.60;47.00;;;;;;9020372;26;20000;-59
2024/04/17 11:41:51;;;;;;;;;;;19.60;47.00;;;;;;9019927;26;19936;-59
2024/04/17 11:45:51;;;;;;;;;;;19.60;47.00;;;;;;9019532;26;19966;-56
2024/04/17 11:49:52;;;;;;;;;;;19.60;47.00;;;;;;9061090;26;19939;-56
2024/04/17 11:53:53;;;;;;;;;;;19.60;47.00;;;;;;9079789;26;19939;-57
2024/04/17 11:57:56;;;;;;;;;;;19.60;47.00;;;;;;9036375;26;19936;-55
2024/04/17 12:01:56;;;;;;;;;;;19.60;47.00;;;;;;9025088;26;19932;-55
2024/04/17 12:05:57;;;;;;;;;;;19.60;47.00;;;;;;9025322;26;19932;-56
2024/04/17 12:09:58;;;;;;;;;;;19.60;47.00;;;;;;9024652;26;19932;-56
2024/04/17 12:13:58;;;;;;;;;;;19.60;47.00;;;;;;9025553;26;20483;-55
2024/04/17 12:17:59;;;;;;;;;;;19.60;47.00;;;;;;9024686;26;20479;-56
2024/04/17 12:22:00;;;;;;;;;;;19.50;47.00;;;;;;9024619;26;19929;-56
2024/04/17 12:30:19;;;;;;;;;;;19.60;47.00;;;;;;9024101;26;19928;-56
2024/04/17 12:34:20;;;;;;;;;;;19.60;47.50;;;;;;8940933;26;19936;-59
2024/04/17 12:38:21;;;;;;;;;;;19.70;47.40;;;;;;8904936;26;19933;-58
2024/04/17 12:42:22;;;;;;;;;;;19.70;47.50;;;;;;8874141;26;19930;-52
2024/04/17 12:46:22;;;;;;;;;;;19.70;47.30;;;;;;8874237;26;20402;-58
2024/04/17 12:50:23;;;;;;;;;;;19.80;47.40;;;;;;8904886;26;20268;-56
2024/04/17 12:54:24;;;;;;;;;;;19.80;47.30;;;;;;8817342;26;20000;-59
2024/04/17 12:58:24;;;;;;;;;;;19.80;47.30;;;;;;8952229;26;20315;-59
2024/04/17 13:02:25;;;;;;;;;;;19.80;47.40;;;;;;8933068;26;19943;-62
2024/04/17 13:06:27;;;;;;;;;;;19.80;47.20;;;;;;8912757;26;19933;-61
2024/04/17 13:10:28;;;;;;;;;;;19.80;47.20;;;;;;8903133;26;19929;-59
2024/04/17 13:14:28;;;;;;;;;;;19.80;47.10;;;;;;8905215;26;19936;-60
2024/04/17 13:18:31;;;;;;;;;;;19.80;47.10;;;;;;8904831;26;19937;-59
2024/04/17 13:22:33;;;;;;;;;;;19.80;47.30;;;;;;8904768;26;19929;-58
2024/04/17 13:26:34;;;;;;;;;;;19.80;47.20;;;;;;8904902;26;19930;-60
2024/04/17 13:30:34;;;;;;;;;;;19.80;47.60;;;;;;8904661;26;19937;-63
2024/04/17 13:34:35;;;;;;;;;;;19.80;47.40;;;;;;8945995;26;20314;-62
2024/04/17 13:38:36;;;;;;;;;;;19.70;47.30;;;;;;8932074;26;19933;-62
2024/04/17 13:42:36;;;;;;;;;;;19.70;47.40;;;;;;8962896;26;19940;-59
2024/04/17 13:46:40;;;;;;;;;;;19.70;47.30;;;;;;8962903;26;19929;-59
2024/04/17 13:50:41;;;;;;;;;;;19.80;47.30;;;;;;9016132;26;19928;-60
2024/04/17 13:54:41;;;;;;;;;;;19.80;47.30;;;;;;9022514;26;19935;-59
2024/04/17 13:58:42;;;;;;;;;;;19.70;47.40;;;;;;8976864;26;19929;-56
2024/04/17 14:02:45;;;;;;;;;;;19.80;47.50;;;;;;8962214;26;20378;-57
2024/04/17 14:06:46;;;;;;;;;;;19.80;47.60;;;;;;8961350;26;22670;-58
2024/04/17 14:10:46;;;;;;;;;;;19.80;47.40;;;;;;8962423;26;20001;-58
2024/04/17 14:14:50;;;;;;;;;;;19.80;47.70;;;;;;8961710;26;19932;-59
2024/04/17 14:18:51;;;;;;;;;;;19.70;47.50;;;;;;8961325;26;20020;-56
2024/04/17 14:22:52;;;;;;;;;;;19.70;47.60;;;;;;8962216;26;19933;-58
2024/04/17 14:26:52;;;;;;;;;;;19.70;47.70;;;;;;8961835;26;19994;-60
2024/04/17 14:30:56;;;;;;;;;;;19.70;47.80;;;;;;8962000;26;19956;-56
2024/04/17 14:34:57;;;;;;;;;;;19.70;47.70;;;;;;8961411;26;19932;-58
2024/04/17 14:38:57;;;;;;;;;;;19.70;47.70;;;;;;8962299;26;19940;-58
2024/04/17 14:42:58;;;;;;;;;;;19.70;47.70;;;;;;8961798;26;20335;-58
2024/04/17 14:46:58;;;;;;;;;;;19.70;47.70;;;;;;8961946;26;19936;-60
2024/04/17 14:51:03;;;;;;;;;;;19.70;47.70;;;;;;8961027;26;19939;-60
2024/04/17 14:55:03;;;;;;;;;;;19.70;47.90;;;;;;8964693;26;19929;-58
2024/04/17 14:59:07;;;;;;;;;;;19.70;47.80;;;;;;9004575;26;19939;-60
2024/04/17 15:03:07;;;;;;;;;;;19.70;47.90;;;;;;8930875;26;19939;-58
2024/04/17 15:07:08;;;;;;;;;;;19.70;48.00;;;;;;8959930;26;19929;-58
2024/04/17 15:11:12;;;;;;;;;;;19.70;47.90;;;;;;8961720;26;19940;-57
2024/04/17 15:15:13;;;;;;;;;;;19.70;47.90;;;;;;8960840;26;19941;-59
2024/04/17 15:19:15;;;;;;;;;;;19.70;47.90;;;;;;8960178;26;19936;-59
2024/04/17 15:23:15;;;;;;;;;;;19.70;47.80;;;;;;8960975;26;19929;-60
2024/04/17 15:27:16;;;;;;;;;;;19.80;47.70;;;;;;8960932;26;19961;-57
2024/04/17 15:31:18;;;;;;;;;;;19.80;47.80;;;;;;8959248;26;19936;-58
2024/04/17 15:35:19;;;;;;;;;;;19.80;48.00;;;;;;8959181;26;19937;-57
2024/04/17 15:39:23;;;;;;;;;;;19.80;47.90;;;;;;8961070;26;19936;-55
2024/04/17 15:43:24;;;;;;;;;;;19.70;47.90;;;;;;8960001;26;19933;-59
2024/04/17 15:47:25;;;;;;;;;;;19.70;48.10;;;;;;8928694;26;20631;-58
2024/04/17 15:51:25;;;;;;;;;;;19.70;48.20;;;;;;8960034;26;20260;-58
2024/04/17 15:55:30;;;;;;;;;;;19.70;47.80;;;;;;8968935;26;19929;-58
2024/04/17 15:59:31;;;;;;;;;;;19.50;47.10;;;;;;8987832;26;19928;-57
2024/04/17 16:03:32;;;;;;;;;;;19.60;46.80;;;;;;9019281;26;19929;-57
2024/04/17 16:07:33;;;;;;;;;;;19.60;46.80;;;;;;9019201;26;19997;-58
2024/04/17 16:11:33;;;;;;;;;;;19.60;46.70;;;;;;9012760;26;19929;-58
2024/04/17 16:15:34;;;;;;;;;;;19.60;46.70;;;;;;8900525;26;19930;-57
2024/04/17 16:19:35;;;;;;;;;;;19.60;46.70;;;;;;8901348;26;19929;-57
2024/04/17 16:23:35;;;;;;;;;;;19.70;46.70;;;;;;8900557;26;20292;-57
2024/04/17 16:27:36;;;;;;;;;;;19.60;46.70;;;;;;8869087;26;20387;-57
2024/04/17 16:31:37;;;;;;;;;;;19.60;46.80;;;;;;8926142;26;19940;-57
2024/04/17 16:35:39;;;;;;;;;;;19.60;46.80;;;;;;8958867;26;19941;-58
2024/04/17 16:39:43;;;;;;;;;;;19.60;46.90;;;;;;8959013;26;19999;-58
2024/04/17 16:43:44;;;;;;;;;;;19.60;46.90;;;;;;8961428;26;19929;-58
2024/04/17 16:47:47;;;;;;;;;;;19.60;46.90;;;;;;8964648;26;19936;-56
2024/04/17 16:51:48;;;;;;;;;;;19.60;46.90;;;;;;9009885;26;19936;-57
2024/04/17 16:55:48;;;;;;;;;;;19.60;47.00;;;;;;9023362;26;20362;-57
2024/04/17 16:59:49;;;;;;;;;;;19.60;47.00;;;;;;9023827;26;19939;-57
2024/04/17 17:03:50;;;;;;;;;;;19.60;47.00;;;;;;9023516;26;20002;-57
2024/04/17 17:07:55;;;;;;;;;;;19.60;47.00;;;;;;9023397;26;19928;-57
2024/04/17 17:11:55;;;;;;;;;;;19.60;47.00;;;;;;9006900;26;19933;-58
2024/04/17 17:16:00;;;;;;;;;;;19.60;47.00;;;;;;8904604;26;19930;-58
2024/04/17 17:20:03;;;;;;;;;;;19.60;47.10;;;;;;8905050;26;19933;-58
2024/04/17 17:24:03;;;;;;;;;;;19.60;47.10;;;;;;8904877;26;19941;-57
2024/04/17 17:28:04;;;;;;;;;;;19.60;47.10;;;;;;8874467;26;19938;-58
2024/04/17 17:32:05;;;;;;;;;;;19.60;47.10;;;;;;8878117;26;19937;-58
2024/04/17 17:36:05;;;;;;;;;;;19.50;47.10;;;;;;8905665;26;19940;-57
2024/04/17 17:40:06;;;;;;;;;;;19.50;47.10;;;;;;8905084;26;19941;-58
2024/04/17 17:44:07;;;;;;;;;;;19.50;47.10;;;;;;8945392;26;19929;-58
2024/04/17 17:48:07;;;;;;;;;;;19.50;47.10;;;;;;8978703;26;19940;-57
2024/04/17 17:52:08;;;;;;;;;;;19.50;47.10;;;;;;9022795;26;20363;-58
2024/04/17 17:56:09;;;;;;;;;;;19.50;47.10;;;;;;9021478;26;19929;-58
2024/04/17 18:00:11;;;;;;;;;;;19.50;47.10;;;;;;9022149;26;20517;-58
2024/04/17 18:04:12;;;;;;;;;;;19.50;47.10;;;;;;9022406;26;20354;-57
2024/04/17 18:08:15;;;;;;;;;;;19.50;47.10;;;;;;9022546;26;19935;-57
2024/04/17 18:12:16;;;;;;;;;;;19.60;47.10;;;;;;8994740;26;19962;-58
2024/04/17 18:16:16;;;;;;;;;;;19.60;47.10;;;;;;8903800;26;19938;-58
2024/04/17 18:20:17;;;;;;;;;;;19.60;47.10;;;;;;8903876;26;19936;-58
2024/04/17 18:24:17;;;;;;;;;;;19.60;47.10;;;;;;8872553;26;19935;-56
2024/04/17 18:28:18;;;;;;;;;;;19.60;47.10;;;;;;8904023;26;20318;-58
2024/04/17 18:32:19;;;;;;;;;;;19.50;47.10;;;;;;8939634;26;19933;-58
2024/04/17 18:36:27;;;;;;;;;;;19.50;47.60;;;;;;8960457;26;19929;-59
2024/04/17 18:40:27;;;;;;;;;;;19.60;47.30;;;;;;8961420;26;19933;-60
2024/04/17 18:44:28;;;;;;;;;;;19.70;47.20;;;;;;8961706;26;19929;-59
2024/04/17 18:48:28;;;;;;;;;;;19.60;47.20;;;;;;8982112;26;19935;-58
2024/04/17 18:52:29;;;;;;;;;;;19.70;47.30;;;;;;9021499;26;19932;-59
2024/04/17 18:56:30;;;;;;;;;;;19.70;47.40;;;;;;8988035;26;19928;-59
2024/04/17 19:00:30;;;;;;;;;;;19.70;47.50;;;;;;9020998;26;20007;-59
2024/04/17 19:04:32;;;;;;;;;;;19.70;47.60;;;;;;8937219;26;19961;-58
2024/04/17 19:08:33;;;;;;;;;;;19.70;47.60;;;;;;8959293;26;19940;-57
2024/04/17 19:12:33;;;;;;;;;;;19.70;47.70;;;;;;8936255;26;19929;-59
2024/04/17 19:16:34;;;;;;;;;;;19.70;47.70;;;;;;8929810;26;19937;-59
2024/04/17 19:20:34;;;;;;;;;;;19.70;47.70;;;;;;8960735;26;19936;-56
2024/04/17 19:24:35;;;;;;;;;;;19.70;47.60;;;;;;8960648;26;19965;-59
2024/04/17 19:28:36;;;;;;;;;;;19.70;47.70;;;;;;8960683;26;19940;-58
2024/04/17 19:32:36;;;;;;;;;;;19.70;47.60;;;;;;8899660;26;20017;-59
2024/04/17 19:36:37;;;;;;;;;;;19.70;47.70;;;;;;8914716;26;19937;-57
2024/04/17 19:40:37;;;;;;;;;;;19.70;47.60;;;;;;8954729;26;19957;-59
2024/04/17 19:44:38;;;;;;;;;;;19.70;47.70;;;;;;8917505;26;19935;-58
2024/04/17 19:48:42;;;;;;;;;;;19.70;47.80;;;;;;8973123;26;19929;-58
2024/04/17 19:52:45;;;;;;;;;;;19.70;47.90;;;;;;8987595;26;19928;-57
2024/04/17 19:56:46;;;;;;;;;;;19.70;48.00;;;;;;9019111;26;19935;-57
2024/04/17 20:00:47;;;;;;;;;;;19.60;48.30;;;;;;9019323;26;19928;-57
2024/04/17 20:04:48;;;;;;;;;;;19.60;47.70;;;;;;9019375;26;19940;-57
2024/04/17 20:08:50;;;;;;;;;;;19.60;47.70;;;;;;9018839;26;19997;-57
2024/04/17 20:12:51;;;;;;;;;;;19.60;47.60;;;;;;8943218;26;19933;-56
2024/04/17 20:16:51;;;;;;;;;;;19.60;47.50;;;;;;8900553;26;19937;-57
2024/04/17 20:20:52;;;;;;;;;;;19.60;48.00;;;;;;8906534;26;19999;-57
2024/04/17 20:24:53;;;;;;;;;;;19.60;47.40;;;;;;8906173;26;19937;-57
2024/04/17 20:28:54;;;;;;;;;;;19.60;47.40;;;;;;8906340;26;19929;-56
2024/04/17 20:32:54;;;;;;;;;;;19.70;47.40;;;;;;8951187;26;19948;-56
2024/04/17 20:36:55;;;;;;;;;;;19.60;47.30;;;;;;8964896;26;20363;-56
2024/04/17 20:40:56;;;;;;;;;;;19.70;47.30;;;;;;8965347;26;19929;-56
2024/04/17 20:44:57;;;;;;;;;;;19.60;47.30;;;;;;8964226;26;19929;-57
2024/04/17 20:48:57;;;;;;;;;;;19.60;47.30;;;;;;8992198;26;20373;-58
2024/04/17 20:52:58;;;;;;;;;;;19.60;47.30;;;;;;9024045;26;19939;-57
2024/04/17 20:56:59;;;;;;;;;;;19.60;47.30;;;;;;9023442;26;20337;-58
2024/04/17 21:00:59;;;;;;;;;;;19.60;47.20;;;;;;9023865;26;19929;-57
2024/04/17 21:05:03;;;;;;;;;;;19.60;47.20;;;;;;8992416;26;19940;-56
2024/04/17 21:09:04;;;;;;;;;;;19.60;47.20;;;;;;9023293;26;19936;-57
2024/04/17 21:13:05;;;;;;;;;;;19.60;47.20;;;;;;8972252;26;19936;-57
2024/04/17 21:17:05;;;;;;;;;;;19.60;47.70;;;;;;8905392;26;19930;-57
2024/04/17 21:21:06;;;;;;;;;;;19.60;47.20;;;;;;8904977;26;19936;-57
2024/04/17 21:25:08;;;;;;;;;;;19.60;47.30;;;;;;8905333;26;19937;-58
2024/04/17 21:29:09;;;;;;;;;;;19.60;47.30;;;;;;8873161;26;20598;-58
2024/04/17 21:33:13;;;;;;;;;;;19.50;47.30;;;;;;8954031;26;20023;-56
2024/04/17 21:37:13;;;;;;;;;;;19.60;47.40;;;;;;8963621;26;19935;-56
2024/04/17 21:41:14;;;;;;;;;;;19.50;47.40;;;;;;8932922;26;19940;-57
2024/04/17 21:45:17;;;;;;;;;;;19.50;47.40;;;;;;8963930;26;19937;-57
2024/04/17 21:49:18;;;;;;;;;;;19.50;47.40;;;;;;8995898;26;19937;-56
2024/04/17 21:53:18;;;;;;;;;;;19.50;47.40;;;;;;9022638;26;20569;-56
2024/04/17 21:57:19;;;;;;;;;;;19.50;47.50;;;;;;9022869;26;19929;-57
2024/04/17 22:01:20;;;;;;;;;;;19.50;47.50;;;;;;9003476;26;19955;-56
2024/04/17 22:05:28;;;;;;;;;;;19.50;47.40;;;;;;8963146;26;20269;-57
2024/04/17 22:09:28;;;;;;;;;;;19.50;47.50;;;;;;8931880;26;19936;-56
2024/04/17 22:13:29;;;;;;;;;;;19.50;47.50;;;;;;8957204;26;19935;-56
2024/04/17 22:17:29;;;;;;;;;;;19.40;47.40;;;;;;8962453;26;19971;-57
2024/04/17 22:21:30;;;;;;;;;;;19.50;47.50;;;;;;8931304;26;19963;-57
2024/04/17 22:25:31;;;;;;;;;;;19.50;47.50;;;;;;8962643;26;19937;-57
2024/04/17 22:29:32;;;;;;;;;;;19.50;47.50;;;;;;8962435;26;20363;-57
2024/04/17 22:33:32;;;;;;;;;;;19.40;47.40;;;;;;8961732;26;19941;-57
2024/04/17 22:37:33;;;;;;;;;;;19.40;47.40;;;;;;8961779;26;20370;-56
2024/04/17 22:41:33;;;;;;;;;;;19.40;47.40;;;;;;8961628;26;19953;-56
2024/04/17 22:45:34;;;;;;;;;;;19.40;47.40;;;;;;8961794;26;19937;-56
2024/04/17 22:49:35;;;;;;;;;;;19.40;47.40;;;;;;8989007;26;19943;-56
2024/04/17 22:53:36;;;;;;;;;;;19.40;47.40;;;;;;9021154;26;19936;-57
2024/04/17 22:57:36;;;;;;;;;;;19.40;47.50;;;;;;8988860;26;19936;-56
2024/04/17 23:01:38;;;;;;;;;;;19.40;47.50;;;;;;9021112;26;19950;-56
2024/04/17 23:05:39;;;;;;;;;;;19.40;47.60;;;;;;9020649;26;19928;-56
2024/04/17 23:09:40;;;;;;;;;;;19.40;47.50;;;;;;9020961;26;20285;-57
2024/04/17 23:13:40;;;;;;;;;;;19.30;47.50;;;;;;8952241;26;19935;-57
2024/04/17 23:17:41;;;;;;;;;;;19.30;47.40;;;;;;8871609;26;20432;-57
2024/04/17 23:21:41;;;;;;;;;;;19.40;47.50;;;;;;8902511;26;19945;-56
2024/04/17 23:25:42;;;;;;;;;;;19.40;47.50;;;;;;8902551;26;20426;-57